sensor_id;sensor_type;location;lat;lon;timestamp;pressure;altitude;pressure_sealevel;temperature;humidity
76331;BME280;65148;51.912;15.570;2023-08-06T00:01:45;100727.76;;;16.35;100.00
76331;BME280;65148;51.912;15.570;2023-08-06T00:16:46;100701.08;;;16.53;100.00
76331;BME280;65148;51.912;15.570;2023-08-06T00:31:47;100697.65;;;16.56;100.00
76331;BME280;65148;51.912;15.570;2023-08-06T00:46:48;100662.28;;;16.46;100.00
76331;BME280;65148;51.912;15.570;2023-08-06T01:02:08;100636.34;;;16.17;100.00
76331;BME280;65148;51.912;15.570;2023-08-06T01:17:10;100605.15;;;16.13;100.00
76331;BME280;65148;51.912;15.570;2023-08-06T01:32:14;100572.70;;;16.06;100.00
76331;BME280;65148;51.912;15.570;2023-08-06T01:47:16;100560.95;;;15.97;100.00
76331;BME280;65148;51.912;15.570;2023-08-06T02:02:31;100529.48;;;15.86;100.00
76331;BME280;65148;51.912;15.570;2023-08-06T02:17:32;100537.74;;;15.78;100.00
76331;BME280;65148;51.912;15.570;2023-08-06T02:32:33;100545.30;;;15.89;100.00
76331;BME280;65148;51.912;15.570;2023-08-06T02:47:36;100502.19;;;15.90;100.00
76331;BME280;65148;51.912;15.570;2023-08-06T03:02:54;100482.20;;;15.72;100.00
76331;BME280;65148;51.912;15.570;2023-08-06T03:17:56;100475.09;;;15.71;100.00
76331;BME280;65148;51.912;15.570;2023-08-06T03:32:58;100474.29;;;15.70;100.00
76331;BME280;65148;51.912;15.570;2023-08-06T03:47:59;100412.66;;;15.68;100.00
76331;BME280;65148;51.912;15.570;2023-08-06T04:03:16;100345.20;;;15.50;100.00
76331;BME280;65148;51.912;15.570;2023-08-06T04:18:17;100334.05;;;15.63;100.00
76331;BME280;65148;51.912;15.570;2023-08-06T04:33:18;100317.26;;;15.65;100.00
76331;BME280;65148;51.912;15.570;2023-08-06T04:48:19;100269.32;;;15.62;100.00
76331;BME280;65148;51.912;15.570;2023-08-06T05:03:39;100259.68;;;15.48;100.00
76331;BME280;65148;51.912;15.570;2023-08-06T05:18:40;100280.30;;;15.62;100.00
76331;BME280;65148;51.912;15.570;2023-08-06T05:33:42;100292.74;;;15.60;100.00
76331;BME280;65148;51.912;15.570;2023-08-06T05:48:43;100302.35;;;15.75;100.00
76331;BME280;65148;51.912;15.570;2023-08-06T06:04:04;100287.50;;;15.76;100.00
76331;BME280;65148;51.912;15.570;2023-08-06T06:19:05;100258.51;;;15.66;100.00
76331;BME280;65148;51.912;15.570;2023-08-06T06:34:06;100240.22;;;15.70;100.00
76331;BME280;65148;51.912;15.570;2023-08-06T06:49:07;100223.10;;;15.73;100.00
76331;BME280;65148;51.912;15.570;2023-08-06T07:04:26;100221.09;;;15.82;100.00
76331;BME280;65148;51.912;15.570;2023-08-06T07:19:27;100215.59;;;15.82;100.00
76331;BME280;65148;51.912;15.570;2023-08-06T07:34:28;100184.93;;;15.80;100.00
76331;BME280;65148;51.912;15.570;2023-08-06T07:49:29;100164.87;;;15.88;100.00
76331;BME280;65148;51.912;15.570;2023-08-06T08:04:49;100151.59;;;15.90;100.00
76331;BME280;65148;51.912;15.570;2023-08-06T08:19:50;100150.09;;;16.14;100.00
76331;BME280;65148;51.912;15.570;2023-08-06T08:34:52;100135.35;;;16.18;100.00
76331;BME280;65148;51.912;15.570;2023-08-06T08:49:54;100116.70;;;16.24;100.00
76331;BME280;65148;51.912;15.570;2023-08-06T09:05:11;100090.91;;;16.04;100.00
76331;BME280;65148;51.912;15.570;2023-08-06T09:20:14;100070.13;;;16.27;100.00
76331;BME280;65148;51.912;15.570;2023-08-06T09:35:19;100048.98;;;16.28;100.00
76331;BME280;65148;51.912;15.570;2023-08-06T09:50:21;100037.77;;;16.33;100.00
76331;BME280;65148;51.912;15.570;2023-08-06T10:05:34;100015.78;;;16.21;100.00
76331;BME280;65148;51.912;15.570;2023-08-06T10:20:36;99997.93;;;16.27;100.00
76331;BME280;65148;51.912;15.570;2023-08-06T10:35:42;99977.52;;;16.03;100.00
76331;BME280;65148;51.912;15.570;2023-08-06T10:51:13;99984.08;;;16.35;100.00
76331;BME280;65148;51.912;15.570;2023-08-06T11:06:22;99990.03;;;16.37;100.00
76331;BME280;65148;51.912;15.570;2023-08-06T11:21:23;99976.18;;;16.34;100.00
76331;BME280;65148;51.912;15.570;2023-08-06T11:36:51;99972.75;;;16.25;100.00
76331;BME280;65148;51.912;15.570;2023-08-06T11:51:52;99953.30;;;16.30;100.00
76331;BME280;65148;51.912;15.570;2023-08-06T12:06:53;99944.60;;;16.28;100.00
76331;BME280;65148;51.912;15.570;2023-08-06T12:21:54;99939.58;;;16.30;100.00
76331;BME280;65148;51.912;15.570;2023-08-06T13:58:14;99940.94;;;15.99;100.00
76331;BME280;65148;51.912;15.570;2023-08-06T14:13:15;99943.32;;;16.01;100.00
76331;BME280;65148;51.912;15.570;2023-08-06T14:28:16;99951.13;;;16.11;100.00
76331;BME280;65148;51.912;15.570;2023-08-06T14:43:17;99969.09;;;16.09;100.00
76331;BME280;65148;51.912;15.570;2023-08-06T14:58:36;99973.79;;;16.32;100.00
76331;BME280;65148;51.912;15.570;2023-08-06T15:13:37;99976.18;;;16.46;100.00
76331;BME280;65148;51.912;15.570;2023-08-06T15:28:38;100004.81;;;16.33;100.00
76331;BME280;65148;51.912;15.570;2023-08-06T15:43:39;100001.35;;;16.24;100.00
76331;BME280;65148;51.912;15.570;2023-08-06T16:14:10;100020.24;;;16.37;100.00
76331;BME280;65148;51.912;15.570;2023-08-06T16:29:11;100030.88;;;16.27;100.00
76331;BME280;65148;51.912;15.570;2023-08-06T16:44:37;100042.52;;;15.99;100.00
76331;BME280;65148;51.912;15.570;2023-08-06T16:59:38;100052.66;;;15.87;100.00
76331;BME280;65148;51.912;15.570;2023-08-06T17:14:39;100055.97;;;15.59;100.00
76331;BME280;65148;51.912;15.570;2023-08-06T17:29:40;100070.61;;;15.43;100.00
76331;BME280;65148;51.912;15.570;2023-08-06T17:44:59;100084.73;;;15.32;100.00
76331;BME280;65148;51.912;15.570;2023-08-06T18:00:00;100103.12;;;15.32;100.00
76331;BME280;65148;51.912;15.570;2023-08-06T18:15:01;100088.20;;;15.21;100.00
76331;BME280;65148;51.912;15.570;2023-08-06T18:30:03;100066.37;;;15.04;100.00
76331;BME280;65148;51.912;15.570;2023-08-06T18:45:21;100062.55;;;14.96;100.00
76331;BME280;65148;51.912;15.570;2023-08-06T19:00:22;100102.20;;;14.98;100.00
76331;BME280;65148;51.912;15.570;2023-08-06T19:15:23;100103.91;;;15.12;100.00
76331;BME280;65148;51.912;15.570;2023-08-06T19:30:24;100103.59;;;15.13;100.00
76331;BME280;65148;51.912;15.570;2023-08-06T19:45:50;100096.57;;;14.95;100.00
76331;BME280;65148;51.912;15.570;2023-08-06T20:00:51;100087.16;;;15.05;100.00
76331;BME280;65148;51.912;15.570;2023-08-06T20:15:52;100051.49;;;15.13;100.00
76331;BME280;65148;51.912;15.570;2023-08-06T20:30:54;100082.45;;;14.84;100.00
76331;BME280;65148;51.912;15.570;2023-08-06T20:46:08;100085.28;;;14.67;100.00
76331;BME280;65148;51.912;15.570;2023-08-06T21:01:09;100076.37;;;14.79;100.00
76331;BME280;65148;51.912;15.570;2023-08-06T21:16:10;100081.90;;;14.70;100.00
76331;BME280;65148;51.912;15.570;2023-08-06T21:31:12;100092.05;;;14.70;100.00
76331;BME280;65148;51.912;15.570;2023-08-06T21:46:31;100115.86;;;14.78;100.00
76331;BME280;65148;51.912;15.570;2023-08-06T22:01:32;100133.31;;;15.03;100.00
76331;BME280;65148;51.912;15.570;2023-08-06T22:16:33;100145.16;;;15.15;100.00
76331;BME280;65148;51.912;15.570;2023-08-06T22:31:33;100131.36;;;15.32;100.00
76331;BME280;65148;51.912;15.570;2023-08-06T22:46:54;100135.05;;;15.07;100.00
76331;BME280;65148;51.912;15.570;2023-08-06T23:01:55;100119.83;;;15.18;100.00
76331;BME280;65148;51.912;15.570;2023-08-06T23:16:56;100110.05;;;15.09;100.00
76331;BME280;65148;51.912;15.570;2023-08-06T23:31:56;100122.42;;;15.15;100.00
76331;BME280;65148;51.912;15.570;2023-08-06T23:47:17;100120.59;;;14.98;100.00
